首页
METAR-TAF:

METAR-TAF

机场 :

约翰·卡尔·芒罗哈密尔顿国际机场

哈密尔顿, 安大略省, 加拿大

纬度: 43-10N, 经度: 079-56W, 海拔: 237米

当前天气观测

该预报发布于17分钟前的03:00 UTC
风速10节,风向西,有时为15节阵风
温度 -8°C
湿度 62%
气压 1031 hPa
能見度: 24.1公里
少量云层高于25000英尺

METAR: CYHM 120300Z 26010G15KT 15SM FEW250 M08/M14 A3046 RMK CI1 CI TR SLP330

时间: 22:17 (03:17 UTC)

预报

该预报发布于3小时和39分钟前的23:38 UTC
预报有效从12日的 00点(UTC)到 12日的 24点(UTC)
风速12节,风向西
能見度: 10公里
少量云层高于2500英尺
成为
从 12日的 00点(UTC)到 12日的 02点(UTC)
风速8节,风向西转西南
从 12日的 1100点(UTC)
风速5节,风向
能見度: 10公里
散云层高于10000英尺
从 12日的 1600点(UTC)
风速10节,风向南转南东
能見度: 10公里
多云层高于2500英尺
阴天层高于10000英尺
成为
从 12日的 16点(UTC)到 12日的 18点(UTC)
风速12节,风向,有时为22节阵风
从 12日的 2100点(UTC)
风速10节,风向,有时为20节阵风
能見度: 10公里
少量云层高于3000英尺
多云层高于20000英尺
成为
从 12日的 21点(UTC)到 12日的 23点(UTC)
风速10节,风向

TAF: CYHM 112338Z 1200/1224 28012KT P6SM FEW025 BECMG 1200/1202 25008KT FM121100 18005KT P6SM SCT100 FM121600 16010KT P6SM BKN025 OVC100 BECMG 1216/1218 17012G22KT FM122100 18010G20KT P6SM FEW030 BKN200 BECMG 1221/1223 19010KT RMK NXT FCST BY 120600Z

超过4000个机场的气象观测和天气预报(METAR&TAF报告)。

可查询的气象台以黄色和红色小点在地图上表示。

将鼠标移到小点上方,可查看气象台名称。

然后点击查看天气观测和预报。

如需切换地图:点击带黑十字的绿色按钮放大地图;点击带横线的绿色按钮缩小地图;或者点击绿色箭头查看邻近地区的地图。


METAR-TAF: